Terminal Aerodrome Forecast
Issued by NWS

Home | Current Version | Previous Version | Graphics & Text | Print | Product List | Glossary On
Versions: 1 2 3 4 5 6 7 8 9 10 11 12 13 14 15 16
233
FTUS43 KGRB 081136
TAFCWA
TAF
KCWA 081136Z 0812/0912 28013G19KT 6SM -SHSN SCT016 OVC022
      TEMPO 0812/0816 1SM -SHSN BKN016
     FM081600 30010G18KT P6SM -SHSN OVC025
      TEMPO 0816/0820 2SM -SHSN BKN018
     FM082200 30011G18KT P6SM -SHSN OVC030
     FM082300 30008KT P6SM OVC035
     FM091000 30008KT P6SM BKN027=

USA.gov is the U.S. government's official web portal to all federal, state and local government web resources and services.